createdAt,value
2017-10-27T00:00:10.381Z,12.46
2017-10-27T00:01:10.456Z,12.48
2017-10-27T00:02:10.389Z,12.50
2017-10-27T00:03:10.475Z,12.47
2017-10-27T00:04:10.402Z,12.47
2017-10-27T00:05:10.486Z,12.47
2017-10-27T00:06:10.426Z,12.48
2017-10-27T00:07:10.507Z,12.47
2017-10-27T00:08:10.442Z,12.44
2017-10-27T00:09:10.513Z,12.46
2017-10-27T00:10:10.459Z,12.50
2017-10-27T00:11:10.527Z,12.48
2017-10-27T00:12:10.482Z,12.50
2017-10-27T00:13:10.536Z,12.44
2017-10-27T00:14:10.494Z,12.46
2017-10-27T00:15:10.552Z,12.44
2017-10-27T00:16:10.509Z,12.38
2017-10-27T00:17:10.571Z,12.40
2017-10-27T00:18:10.533Z,12.40
2017-10-27T00:19:10.579Z,12.38
2017-10-27T00:20:10.561Z,12.47
2017-10-27T00:21:10.594Z,12.46
2017-10-27T00:22:10.563Z,12.48
2017-10-27T00:23:10.609Z,12.38
2017-10-27T00:24:10.586Z,12.51
2017-10-27T00:25:10.618Z,12.38
2017-10-27T00:26:10.599Z,12.47
2017-10-27T00:27:10.634Z,12.47
2017-10-27T00:28:10.617Z,12.36
2017-10-27T00:29:10.649Z,12.40
2017-10-27T00:30:10.632Z,12.38
2017-10-27T00:31:10.663Z,12.35
2017-10-27T00:32:10.656Z,12.41
2017-10-27T00:33:10.675Z,12.38
2017-10-27T00:34:10.676Z,12.41
2017-10-27T00:35:10.800Z,12.38
2017-10-27T00:36:10.688Z,12.29
2017-10-27T00:37:10.805Z,12.35
2017-10-27T00:38:10.717Z,12.38
2017-10-27T00:39:10.823Z,12.41
2017-10-27T00:40:10.723Z,12.33
2017-10-27T00:41:10.838Z,12.30
2017-10-27T00:42:10.740Z,12.26
2017-10-27T00:43:10.847Z,12.21
2017-10-27T00:44:10.758Z,12.00
2017-10-27T00:45:10.855Z,12.03
2017-10-27T00:46:10.776Z,11.95
2017-10-27T00:47:10.884Z,11.82
2017-10-27T00:48:10.795Z,11.82
2017-10-27T00:49:10.892Z,11.77
2017-10-27T00:50:10.818Z,11.61
2017-10-27T00:51:10.912Z,11.74
2017-10-27T00:52:10.830Z,11.61
2017-10-27T00:53:10.912Z,11.49
2017-10-27T00:54:10.843Z,11.52
2017-10-27T00:55:10.927Z,11.54
2017-10-27T00:56:10.859Z,11.43
2017-10-27T00:57:10.938Z,11.48
2017-10-27T00:58:10.902Z,11.41
2017-10-27T00:59:12.303Z,11.41
2017-10-27T01:00:10.896Z,11.48
2017-10-27T01:01:10.967Z,11.40
2017-10-27T01:02:10.921Z,11.36
2017-10-27T01:03:10.981Z,11.34
2017-10-27T01:04:10.940Z,11.37
2017-10-27T01:05:10.995Z,11.33
2017-10-27T01:06:10.949Z,11.28
2017-10-27T01:07:11.009Z,11.36
2017-10-27T01:08:10.968Z,11.31
2017-10-27T01:09:11.018Z,11.28
2017-10-27T01:10:10.982Z,11.33
2017-10-27T01:11:11.033Z,11.33
2017-10-27T01:12:11.019Z,11.38
2017-10-27T01:13:17.707Z,11.28
2017-10-27T01:14:11.024Z,11.27
2017-10-27T01:15:12.089Z,11.34
2017-10-27T01:16:11.040Z,11.23
2017-10-27T01:17:11.074Z,11.16
2017-10-27T01:18:11.057Z,11.22
2017-10-27T01:19:11.089Z,11.27
2017-10-27T01:20:11.073Z,11.20
2017-10-27T01:21:11.103Z,11.05
2017-10-27T01:22:11.084Z,11.15
2017-10-27T01:23:11.116Z,11.11
2017-10-27T01:24:11.114Z,11.12
2017-10-27T01:25:11.132Z,11.12
2017-10-27T01:26:11.120Z,11.05
2017-10-27T01:27:11.249Z,11.08
2017-10-27T01:28:11.152Z,11.12
2017-10-27T01:29:11.262Z,11.04
2017-10-27T01:30:11.161Z,11.01
2017-10-27T01:31:11.276Z,11.05
2017-10-27T01:32:11.181Z,11.09
2017-10-27T01:33:11.290Z,11.03
2017-10-27T01:34:11.194Z,11.05
2017-10-27T01:35:11.298Z,11.00
2017-10-27T01:36:11.217Z,11.04
2017-10-27T01:37:11.315Z,11.03
2017-10-27T01:38:11.228Z,11.05
2017-10-27T01:39:13.277Z,11.15
2017-10-27T01:40:11.239Z,11.16
2017-10-27T01:41:11.344Z,11.09
2017-10-27T01:42:11.254Z,11.11
2017-10-27T01:43:11.356Z,11.12
2017-10-27T01:44:11.273Z,11.12
2017-10-27T01:45:11.374Z,11.13
2017-10-27T01:46:11.300Z,11.11
2017-10-27T01:47:11.404Z,11.11
2017-10-27T01:48:11.322Z,11.05
2017-10-27T01:49:11.402Z,11.04
2017-10-27T01:50:11.329Z,10.94
2017-10-27T01:51:11.418Z,11.05
2017-10-27T01:52:11.344Z,11.09
2017-10-27T01:53:13.478Z,11.04
2017-10-27T01:54:11.359Z,11.09
2017-10-27T01:55:16.251Z,11.12
2017-10-27T01:56:11.377Z,11.13
2017-10-27T01:57:11.451Z,11.11
2017-10-27T01:58:11.397Z,11.09
2017-10-27T01:59:11.469Z,11.05
2017-10-27T02:00:11.419Z,11.08
2017-10-27T02:01:12.507Z,11.05
2017-10-27T02:02:11.431Z,11.08
2017-10-27T02:03:12.518Z,11.03
2017-10-27T02:04:11.450Z,11.08
2017-10-27T02:05:11.508Z,11.04
2017-10-27T02:06:11.467Z,11.00
2017-10-27T02:07:12.549Z,10.95
2017-10-27T02:08:11.482Z,11.01
2017-10-27T02:09:11.536Z,10.97
2017-10-27T02:10:11.499Z,10.91
2017-10-27T02:11:11.549Z,10.93
2017-10-27T02:12:11.517Z,10.83
2017-10-27T02:13:11.561Z,10.83
2017-10-27T02:14:11.533Z,10.83
2017-10-27T02:15:11.575Z,10.83
2017-10-27T02:16:11.549Z,10.86
2017-10-27T02:17:12.612Z,10.94
2017-10-27T02:18:11.560Z,10.90
2017-10-27T02:19:12.629Z,10.87
2017-10-27T02:20:11.588Z,10.86
2017-10-27T02:21:16.219Z,10.90
2017-10-27T02:22:11.600Z,10.86
2017-10-27T02:23:11.629Z,10.85
2017-10-27T02:24:11.621Z,10.82
2017-10-27T02:25:11.642Z,10.79
2017-10-27T02:26:11.644Z,10.76
2017-10-27T02:27:11.758Z,10.82
2017-10-27T02:28:11.652Z,10.82
2017-10-27T02:29:11.772Z,10.78
2017-10-27T02:30:11.678Z,10.76
2017-10-27T02:31:12.719Z,10.83
2017-10-27T02:32:11.695Z,10.78
2017-10-27T02:33:11.805Z,10.78
2017-10-27T02:34:11.702Z,10.73
2017-10-27T02:35:11.812Z,10.73
2017-10-27T02:36:11.725Z,10.70
2017-10-27T02:37:11.830Z,10.68
2017-10-27T02:38:11.736Z,10.68
2017-10-27T02:39:12.866Z,10.67
2017-10-27T02:40:11.760Z,10.72
2017-10-27T02:41:11.849Z,10.68
2017-10-27T02:42:11.769Z,10.61
2017-10-27T02:43:11.867Z,10.61
2017-10-27T02:44:11.789Z,10.64
2017-10-27T02:45:16.696Z,10.65
2017-10-27T02:46:11.806Z,10.64
2017-10-27T02:47:12.918Z,10.52
2017-10-27T02:48:11.822Z,10.62
2017-10-27T02:49:11.910Z,10.60
2017-10-27T02:50:11.832Z,10.58
2017-10-27T02:51:11.923Z,10.54
2017-10-27T02:52:11.857Z,10.65
2017-10-27T02:53:12.957Z,10.65
2017-10-27T02:54:11.871Z,10.61
2017-10-27T02:55:11.945Z,10.54
2017-10-27T02:56:11.885Z,10.46
2017-10-27T02:57:11.963Z,10.52
2017-10-27T02:58:11.907Z,10.60
2017-10-27T02:59:11.920Z,10.58
2017-10-27T03:00:11.968Z,10.54
2017-10-27T03:01:11.934Z,10.58
2017-10-27T03:02:11.985Z,10.58
2017-10-27T03:03:11.952Z,10.62
2017-10-27T03:04:11.992Z,10.57
2017-10-27T03:05:11.967Z,10.57
2017-10-27T03:06:12.005Z,10.67
2017-10-27T03:07:11.980Z,10.60
2017-10-27T03:08:12.014Z,10.60
2017-10-27T03:09:12.008Z,10.60
2017-10-27T03:10:12.032Z,10.55
2017-10-27T03:11:12.019Z,10.54
2017-10-27T03:12:12.042Z,10.55
2017-10-27T03:13:12.037Z,10.55
2017-10-27T03:14:12.161Z,10.57
2017-10-27T03:15:12.054Z,10.52
2017-10-27T03:16:12.172Z,10.54
2017-10-27T03:17:12.075Z,10.57
2017-10-27T03:18:12.187Z,10.57
2017-10-27T03:19:12.088Z,10.58
2017-10-27T03:20:12.200Z,10.52
2017-10-27T03:21:12.110Z,10.55
2017-10-27T03:22:12.217Z,10.57
2017-10-27T03:23:12.123Z,10.48
2017-10-27T03:24:12.233Z,10.46
2017-10-27T03:25:12.146Z,10.43
2017-10-27T03:26:12.242Z,10.54
2017-10-27T03:27:12.156Z,10.43
2017-10-27T03:28:12.253Z,10.48
2017-10-27T03:29:12.176Z,10.49
2017-10-27T03:30:12.270Z,10.42
2017-10-27T03:31:12.189Z,10.45
2017-10-27T03:32:12.276Z,10.35
2017-10-27T03:33:12.206Z,10.36
2017-10-27T03:34:12.294Z,10.36
2017-10-27T03:35:12.223Z,10.31
2017-10-27T03:36:12.307Z,10.30
2017-10-27T03:37:12.241Z,10.26
2017-10-27T03:38:12.320Z,10.24
2017-10-27T03:39:12.261Z,10.30
2017-10-27T03:40:12.337Z,10.30
2017-10-27T03:41:12.276Z,10.24
2017-10-27T03:42:12.344Z,10.20
2017-10-27T03:43:12.288Z,10.26
2017-10-27T03:44:12.367Z,10.24
2017-10-27T03:45:12.309Z,10.27
2017-10-27T03:46:12.381Z,10.31
2017-10-27T03:47:12.323Z,10.38
2017-10-27T03:48:12.398Z,10.39
2017-10-27T03:49:12.345Z,10.39
2017-10-27T03:50:12.405Z,10.43
2017-10-27T03:51:12.362Z,10.46
2017-10-27T03:52:12.422Z,10.41
2017-10-27T03:53:12.374Z,10.46
2017-10-27T03:54:12.434Z,10.46
2017-10-27T03:55:12.388Z,10.49
2017-10-27T03:56:12.445Z,10.52
2017-10-27T03:57:12.405Z,10.54
2017-10-27T03:58:12.460Z,10.55
2017-10-27T03:59:12.425Z,10.57
2017-10-27T04:00:12.480Z,10.54
2017-10-27T04:01:12.434Z,10.42
2017-10-27T04:02:12.492Z,10.46
2017-10-27T04:03:12.460Z,10.38
2017-10-27T04:04:12.507Z,10.30
2017-10-27T04:05:12.477Z,10.36
2017-10-27T04:06:12.512Z,10.24
2017-10-27T04:07:12.492Z,10.35
2017-10-27T04:08:12.536Z,10.26
2017-10-27T04:09:12.516Z,10.27
2017-10-27T04:10:12.540Z,10.26
2017-10-27T04:11:12.524Z,10.27
2017-10-27T04:12:12.553Z,10.24
2017-10-27T04:13:12.541Z,10.18
2017-10-27T04:14:12.569Z,10.16
2017-10-27T04:15:12.561Z,10.14
2017-10-27T04:16:12.583Z,10.14
2017-10-27T04:17:12.578Z,10.16
2017-10-27T04:18:12.598Z,10.14
2017-10-27T04:19:12.588Z,10.20
2017-10-27T04:20:12.719Z,10.26
2017-10-27T04:21:12.614Z,10.23
2017-10-27T04:22:12.722Z,10.14
2017-10-27T04:23:12.628Z,10.14
2017-10-27T04:24:12.739Z,10.14
2017-10-27T04:25:12.641Z,10.08
2017-10-27T04:26:12.755Z,10.08
2017-10-27T04:27:12.664Z,10.05
2017-10-27T04:28:12.766Z,10.03
2017-10-27T04:29:12.685Z,9.99
2017-10-27T04:30:12.786Z,9.93
2017-10-27T04:31:12.693Z,9.99
2017-10-27T04:32:12.794Z,9.91
2017-10-27T04:33:12.714Z,10.01
2017-10-27T04:34:12.806Z,9.99
2017-10-27T04:35:12.728Z,9.90
2017-10-27T04:36:12.819Z,9.85
2017-10-27T04:37:12.747Z,9.99
2017-10-27T04:38:12.840Z,9.81
2017-10-27T04:39:12.757Z,9.81
2017-10-27T04:40:12.867Z,9.91
2017-10-27T04:41:12.780Z,9.75
2017-10-27T04:42:12.860Z,9.80
2017-10-27T04:43:12.790Z,9.73
2017-10-27T04:44:12.880Z,9.73
2017-10-27T04:45:12.809Z,9.81
2017-10-27T04:46:12.887Z,9.70
2017-10-27T04:47:12.827Z,9.72
2017-10-27T04:48:12.902Z,9.67
2017-10-27T04:49:12.852Z,9.77
2017-10-27T04:50:12.914Z,9.73
2017-10-27T04:51:12.859Z,9.80
2017-10-27T04:52:13.952Z,9.78
2017-10-27T04:53:12.893Z,9.69
2017-10-27T04:54:12.941Z,9.81
2017-10-27T04:55:12.893Z,9.66
2017-10-27T04:56:12.960Z,9.59
2017-10-27T04:57:12.917Z,9.67
2017-10-27T04:58:12.986Z,9.66
2017-10-27T04:59:12.929Z,9.62
2017-10-27T05:00:12.983Z,9.73
2017-10-27T05:01:12.939Z,9.72
2017-10-27T05:02:13.001Z,9.72
2017-10-27T05:03:12.959Z,9.75
2017-10-27T05:04:13.015Z,9.75
2017-10-27T05:05:12.974Z,9.77
2017-10-27T05:06:13.021Z,9.80
2017-10-27T05:07:12.989Z,9.77
2017-10-27T05:08:13.040Z,9.78
2017-10-27T05:09:13.010Z,9.94
2017-10-27T05:10:13.048Z,9.96
2017-10-27T05:11:13.024Z,10.02
2017-10-27T05:12:13.072Z,9.93
2017-10-27T05:13:13.056Z,9.98
2017-10-27T05:14:13.097Z,10.05
2017-10-27T05:15:13.055Z,10.08
2017-10-27T05:16:13.100Z,10.08
2017-10-27T05:17:13.080Z,10.09
2017-10-27T05:18:13.115Z,10.09
2017-10-27T05:19:13.089Z,10.12
2017-10-27T05:20:13.118Z,10.08
2017-10-27T05:21:13.107Z,10.08
2017-10-27T05:22:13.133Z,10.09
2017-10-27T05:23:13.149Z,10.01
2017-10-27T05:24:13.147Z,9.88
2017-10-27T05:25:13.135Z,9.90
2017-10-27T05:26:13.161Z,9.90
2017-10-27T05:27:13.153Z,9.93
2017-10-27T05:28:13.277Z,9.81
2017-10-27T05:29:13.183Z,9.84
2017-10-27T05:30:13.193Z,9.80
2017-10-27T05:31:13.192Z,9.85
2017-10-27T05:32:13.326Z,9.81
2017-10-27T05:33:13.214Z,9.96
2017-10-27T05:34:13.325Z,9.94
2017-10-27T05:35:13.216Z,10.03
2017-10-27T05:36:13.335Z,10.03
2017-10-27T05:37:13.246Z,9.98
2017-10-27T05:38:13.349Z,9.88
2017-10-27T05:39:13.260Z,9.88
2017-10-27T05:40:13.362Z,9.96
2017-10-27T05:41:13.271Z,9.87
2017-10-27T05:42:13.381Z,9.93
2017-10-27T05:43:13.286Z,9.80
2017-10-27T05:44:13.390Z,9.77
2017-10-27T05:45:13.302Z,9.75
2017-10-27T05:46:13.415Z,9.78
2017-10-27T05:47:13.327Z,9.80
2017-10-27T05:48:14.443Z,9.72
2017-10-27T05:49:13.330Z,9.78
2017-10-27T05:50:14.456Z,9.73
2017-10-27T05:51:13.390Z,9.80
2017-10-27T05:52:13.441Z,9.85
2017-10-27T05:53:13.360Z,9.94
2017-10-27T05:54:13.462Z,9.96
2017-10-27T05:55:13.381Z,9.91
2017-10-27T05:56:13.471Z,9.94
2017-10-27T05:57:13.394Z,9.81
2017-10-27T05:58:13.492Z,9.78
2017-10-27T05:59:13.412Z,9.73
2017-10-27T06:00:13.497Z,9.62
2017-10-27T06:01:13.431Z,9.62
2017-10-27T06:02:13.509Z,9.65
2017-10-27T06:03:13.444Z,9.57
2017-10-27T06:04:13.517Z,9.59
2017-10-27T06:05:13.466Z,9.57
2017-10-27T06:06:13.528Z,9.51
2017-10-27T06:07:13.477Z,9.47
2017-10-27T06:08:13.560Z,9.52
2017-10-27T06:09:13.487Z,9.47
2017-10-27T06:10:13.560Z,9.50
2017-10-27T06:11:13.514Z,9.51
2017-10-27T06:12:13.571Z,9.60
2017-10-27T06:13:13.569Z,9.69
2017-10-27T06:14:13.588Z,9.78
2017-10-27T06:15:13.545Z,9.75
2017-10-27T06:16:13.599Z,9.81
2017-10-27T06:17:13.564Z,9.87
2017-10-27T06:18:13.618Z,9.94
2017-10-27T06:19:13.583Z,9.96
2017-10-27T06:20:13.636Z,9.88
2017-10-27T06:21:13.598Z,9.85
2017-10-27T06:22:13.637Z,9.77
2017-10-27T06:23:13.623Z,9.69
2017-10-27T06:24:13.656Z,9.57
2017-10-27T06:25:13.623Z,9.52
2017-10-27T06:26:13.669Z,9.40
2017-10-27T06:27:13.644Z,9.23
2017-10-27T06:28:13.683Z,9.19
2017-10-27T06:29:13.658Z,9.15
2017-10-27T06:30:13.699Z,9.11
2017-10-27T06:31:13.682Z,9.08
2017-10-27T06:32:13.712Z,9.11
2017-10-27T06:33:13.690Z,9.12
2017-10-27T06:34:13.713Z,9.08
2017-10-27T06:35:13.705Z,9.06
2017-10-27T06:36:13.711Z,9.11
2017-10-27T06:37:13.723Z,9.12
2017-10-27T06:38:13.747Z,9.15
2017-10-27T06:39:13.736Z,9.01
2017-10-27T06:40:13.765Z,8.92
2017-10-27T06:41:13.760Z,8.98
2017-10-27T06:42:13.776Z,9.09
2017-10-27T06:43:13.768Z,8.98
2017-10-27T06:44:13.786Z,8.93
2017-10-27T06:45:13.789Z,8.93
2017-10-27T06:46:13.814Z,9.01
2017-10-27T06:47:13.796Z,8.96
2017-10-27T06:48:13.922Z,9.03
2017-10-27T06:49:13.824Z,9.01
2017-10-27T06:50:13.927Z,9.01
2017-10-27T06:51:13.839Z,8.98
2017-10-27T06:52:13.953Z,8.96
2017-10-27T06:53:13.859Z,9.04
2017-10-27T06:54:13.968Z,8.98
2017-10-27T06:55:13.865Z,9.04
2017-10-27T06:56:13.979Z,9.11
2017-10-27T06:57:13.881Z,9.12
2017-10-27T06:58:13.992Z,9.14
2017-10-27T06:59:13.900Z,9.09
2017-10-27T07:00:14.003Z,9.15
2017-10-27T07:01:13.913Z,9.14
2017-10-27T07:02:14.019Z,9.11
2017-10-27T07:03:13.931Z,9.11
2017-10-27T07:04:14.032Z,9.11
2017-10-27T07:05:13.946Z,9.22
2017-10-27T07:06:14.047Z,9.34
2017-10-27T07:07:13.965Z,9.40
2017-10-27T07:08:14.058Z,9.51
2017-10-27T07:09:13.987Z,9.59
2017-10-27T07:10:14.072Z,9.60
2017-10-27T07:11:13.995Z,9.66
2017-10-27T07:12:14.086Z,9.63
2017-10-27T07:13:14.015Z,9.59
2017-10-27T07:14:14.024Z,9.65
2017-10-27T07:15:14.030Z,9.57
2017-10-27T07:16:14.111Z,9.59
2017-10-27T07:17:14.042Z,9.63
2017-10-27T07:18:14.128Z,9.55
2017-10-27T07:19:14.078Z,9.54
2017-10-27T07:20:14.140Z,9.52
2017-10-27T07:21:14.081Z,9.60
2017-10-27T07:22:15.089Z,9.59
2017-10-27T07:23:14.089Z,9.63
2017-10-27T07:24:14.104Z,9.60
2017-10-27T07:25:14.105Z,9.60
2017-10-27T07:26:14.124Z,9.73
2017-10-27T07:27:14.121Z,9.73
2017-10-27T07:28:14.136Z,9.78
2017-10-27T07:29:14.142Z,9.78
2017-10-27T07:30:14.160Z,9.72
2017-10-27T07:31:14.165Z,9.70
2017-10-27T07:32:14.174Z,9.72
2017-10-27T07:33:14.171Z,9.67
2017-10-27T07:34:14.179Z,9.67
2017-10-27T07:35:14.190Z,9.77
2017-10-27T07:36:14.201Z,9.83
2017-10-27T07:37:14.204Z,9.96
2017-10-27T07:38:14.223Z,9.99
2017-10-27T07:39:14.221Z,10.08
2017-10-27T07:40:14.234Z,10.09
2017-10-27T07:41:14.232Z,10.18
2017-10-27T07:42:14.242Z,10.20
2017-10-27T07:43:14.264Z,10.24
2017-10-27T07:44:14.256Z,10.30
2017-10-27T07:45:14.260Z,10.31
2017-10-27T07:46:14.285Z,10.26
2017-10-27T07:47:14.281Z,10.39
2017-10-27T07:48:14.291Z,10.39
2017-10-27T07:49:14.295Z,10.45
2017-10-27T07:50:14.304Z,10.46
2017-10-27T07:51:14.309Z,10.42
2017-10-27T07:52:14.322Z,10.52
2017-10-27T07:53:14.337Z,10.52
2017-10-27T07:54:14.341Z,10.58
2017-10-27T07:55:14.344Z,10.65
2017-10-27T07:56:14.352Z,10.61
2017-10-27T07:57:14.364Z,10.70
2017-10-27T07:58:14.371Z,10.58
2017-10-27T07:59:14.371Z,10.57
2017-10-27T08:00:14.390Z,10.52
2017-10-27T08:01:14.397Z,10.48
2017-10-27T08:02:14.397Z,10.39
2017-10-27T08:03:14.406Z,10.42
2017-10-27T08:04:14.417Z,10.27
2017-10-27T08:05:14.419Z,10.24
2017-10-27T08:06:14.448Z,10.17
2017-10-27T08:07:14.433Z,10.03
2017-10-27T08:08:14.448Z,10.08
2017-10-27T08:09:14.458Z,10.02
2017-10-27T08:10:14.462Z,9.94
2017-10-27T08:11:14.468Z,10.01
2017-10-27T08:12:14.475Z,10.09
2017-10-27T08:13:14.483Z,10.02
2017-10-27T08:14:14.498Z,10.05
2017-10-27T08:15:14.500Z,10.08
2017-10-27T08:16:14.507Z,10.06
2017-10-27T08:17:14.508Z,10.21
2017-10-27T08:18:14.526Z,10.09
2017-10-27T08:19:14.532Z,10.16
2017-10-27T08:20:14.544Z,10.16
2017-10-27T08:21:14.561Z,10.26
2017-10-27T08:22:14.572Z,10.26
2017-10-27T08:23:14.566Z,10.31
2017-10-27T08:24:14.583Z,10.31
2017-10-27T08:25:14.594Z,10.39
2017-10-27T08:26:14.588Z,10.35
2017-10-27T08:27:14.593Z,10.39
2017-10-27T08:28:15.268Z,10.46
2017-10-27T08:29:14.607Z,10.46
2017-10-27T08:30:14.637Z,10.42
2017-10-27T08:31:14.629Z,10.52
2017-10-27T08:32:14.639Z,10.52
2017-10-27T08:33:14.643Z,10.52
2017-10-27T08:34:14.653Z,10.57
2017-10-27T08:35:14.660Z,10.61
2017-10-27T08:36:14.670Z,10.67
2017-10-27T08:37:14.683Z,10.68
2017-10-27T08:38:14.693Z,10.67
2017-10-27T08:39:14.697Z,10.67
2017-10-27T08:40:14.713Z,10.70
2017-10-27T08:41:14.723Z,10.76
2017-10-27T08:42:15.727Z,10.79
2017-10-27T08:43:14.735Z,10.82
2017-10-27T08:44:14.743Z,10.86
2017-10-27T08:45:14.748Z,10.85
2017-10-27T08:46:14.758Z,10.93
2017-10-27T08:47:14.771Z,10.90
2017-10-27T08:48:14.769Z,10.97
2017-10-27T08:49:14.783Z,10.94
2017-10-27T08:50:14.784Z,10.98
2017-10-27T08:51:14.792Z,11.01
2017-10-27T08:52:15.815Z,11.04
2017-10-27T08:53:14.813Z,11.11
2017-10-27T08:54:14.812Z,11.08
2017-10-27T08:55:14.822Z,11.11
2017-10-27T08:56:14.849Z,11.20
2017-10-27T08:57:14.850Z,11.23
2017-10-27T08:58:14.856Z,11.30
2017-10-27T08:59:14.864Z,11.30
2017-10-27T09:00:14.870Z,11.31
2017-10-27T09:01:14.876Z,11.27
2017-10-27T09:02:14.886Z,11.30
2017-10-27T09:03:14.894Z,11.36
2017-10-27T09:04:14.902Z,11.36
2017-10-27T09:05:14.913Z,11.40
2017-10-27T09:06:14.926Z,11.34
2017-10-27T09:07:14.932Z,11.43
2017-10-27T09:08:26.774Z,11.38
2017-10-27T09:09:14.947Z,11.49
2017-10-27T09:10:15.958Z,11.46
2017-10-27T09:11:14.961Z,11.48
2017-10-27T09:12:21.779Z,11.52
2017-10-27T09:13:14.982Z,11.59
2017-10-27T09:14:15.004Z,11.66
2017-10-27T09:15:14.996Z,11.62
2017-10-27T09:16:16.018Z,11.61
2017-10-27T09:17:15.014Z,11.71
2017-10-27T09:18:15.034Z,11.79
2017-10-27T09:19:15.042Z,11.79
2017-10-27T09:20:31.782Z,11.96
2017-10-27T09:21:15.060Z,11.95
2017-10-27T09:22:15.063Z,12.08
2017-10-27T09:23:21.777Z,12.05
2017-10-27T09:24:15.087Z,12.08
2017-10-27T09:25:17.102Z,12.13
2017-10-27T09:26:15.100Z,12.25
2017-10-27T09:27:19.762Z,12.26
2017-10-27T09:28:15.124Z,12.35
2017-10-27T09:29:25.774Z,12.43
2017-10-27T09:30:15.143Z,12.47
2017-10-27T09:31:20.779Z,12.55
2017-10-27T09:32:15.154Z,12.65
2017-10-27T09:33:17.183Z,12.72
2017-10-27T09:34:15.171Z,12.72
2017-10-27T09:35:15.186Z,12.87
2017-10-27T09:36:15.194Z,12.98
2017-10-27T09:37:16.225Z,13.05
2017-10-27T09:38:15.213Z,13.11
2017-10-27T09:39:36.234Z,13.21
2017-10-27T09:40:15.228Z,13.21
2017-10-27T09:41:15.266Z,13.14
2017-10-27T09:42:25.892Z,12.98
2017-10-27T09:43:15.257Z,12.83
2017-10-27T09:44:15.354Z,12.77
2017-10-27T09:45:15.281Z,12.72
2017-10-27T09:46:26.328Z,12.84
2017-10-27T09:47:15.291Z,12.99
2017-10-27T09:48:16.402Z,13.06
2017-10-27T09:49:15.315Z,13.09
2017-10-27T09:50:17.453Z,13.13
2017-10-27T09:51:15.329Z,13.06
2017-10-27T09:52:41.413Z,13.16
2017-10-27T09:53:15.356Z,13.32
2017-10-27T09:54:21.454Z,13.30
2017-10-27T09:55:15.368Z,13.23
2017-10-27T09:56:16.556Z,13.17
2017-10-27T09:57:15.552Z,13.20
2017-10-27T09:58:15.456Z,13.23
2017-10-27T09:59:15.417Z,13.26
2017-10-27T10:00:36.503Z,13.43
2017-10-27T10:01:15.588Z,13.45
2017-10-27T10:02:21.437Z,13.64
2017-10-27T10:03:15.651Z,13.86
2017-10-27T10:04:15.524Z,13.80
2017-10-27T10:05:15.460Z,13.73
2017-10-27T10:06:20.428Z,13.64
2017-10-27T10:07:15.557Z,13.51
2017-10-27T10:08:17.675Z,13.49
2017-10-27T10:09:15.580Z,13.27
2017-10-27T10:10:20.493Z,13.17
2017-10-27T10:11:15.556Z,13.08
2017-10-27T10:12:31.338Z,13.04
2017-10-27T10:13:15.540Z,12.96
2017-10-27T10:14:20.476Z,12.95
2017-10-27T10:15:15.557Z,12.87
2017-10-27T10:16:30.417Z,12.83
2017-10-27T10:17:15.587Z,12.79
2017-10-27T10:18:16.715Z,12.79
2017-10-27T10:19:15.588Z,12.76
2017-10-27T10:20:17.748Z,12.86
2017-10-27T10:21:15.615Z,12.84
2017-10-27T10:22:20.425Z,12.87
2017-10-27T10:23:15.651Z,12.96
2017-10-27T10:24:16.750Z,12.96
2017-10-27T10:25:15.713Z,12.93
2017-10-27T10:26:30.501Z,12.90
2017-10-27T10:27:15.661Z,12.87
2017-10-27T10:28:20.459Z,12.91
2017-10-27T10:29:15.866Z,12.91
2017-10-27T10:30:15.871Z,12.87
2017-10-27T10:31:15.701Z,12.93
2017-10-27T10:32:15.708Z,12.96
2017-10-27T10:33:32.483Z,13.05
2017-10-27T10:34:15.724Z,12.99
2017-10-27T10:35:28.396Z,12.99
2017-10-27T10:36:15.738Z,13.01
2017-10-27T10:37:20.416Z,13.21
2017-10-27T10:38:15.758Z,13.46
2017-10-27T10:39:16.868Z,13.47
2017-10-27T10:40:15.787Z,13.65
2017-10-27T10:41:15.952Z,13.78
2017-10-27T10:42:15.823Z,13.86
2017-10-27T10:43:16.992Z,14.09
2017-10-27T10:44:15.823Z,14.19
2017-10-27T10:45:31.948Z,14.37
2017-10-27T10:46:15.852Z,14.40
2017-10-27T10:47:20.896Z,14.38
2017-10-27T10:48:15.873Z,14.28
2017-10-27T10:49:17.028Z,14.28
2017-10-27T10:50:15.884Z,14.27
2017-10-27T10:51:18.137Z,14.21
2017-10-27T10:52:15.930Z,14.13
2017-10-27T10:53:17.063Z,14.09
2017-10-27T10:54:15.919Z,14.03
2017-10-27T10:55:31.911Z,13.90
2017-10-27T10:56:15.923Z,13.86
2017-10-27T10:57:15.951Z,13.72
2017-10-27T10:58:16.058Z,13.58
2017-10-27T10:59:15.981Z,13.54
2017-10-27T11:00:26.927Z,13.42
2017-10-27T11:01:15.976Z,13.47
2017-10-27T11:02:18.150Z,13.40
2017-10-27T11:03:16.802Z,13.35
2017-10-27T11:04:16.200Z,13.32
2017-10-27T11:05:16.010Z,13.27
2017-10-27T11:06:18.160Z,13.16
2017-10-27T11:07:16.031Z,13.27
2017-10-27T11:08:32.006Z,13.23
2017-10-27T11:09:16.058Z,13.27
2017-10-27T11:15:08.585Z,13.46
2017-10-27T11:15:26.661Z,13.45
2017-10-27T11:17:20.171Z,13.53
2017-10-27T11:18:20.010Z,13.49
2017-10-27T11:20:13.376Z,13.47
2017-10-27T11:21:13.407Z,13.46
2017-10-27T11:22:13.401Z,13.51
2017-10-27T11:23:13.516Z,13.46
2017-10-27T11:24:13.403Z,13.58
2017-10-27T11:25:13.527Z,13.67
2017-10-27T11:26:13.420Z,13.67
2017-10-27T11:27:20.113Z,13.61
2017-10-27T11:28:13.442Z,13.60
2017-10-27T11:29:13.556Z,13.54
2017-10-27T11:30:13.463Z,13.55
2017-10-27T11:31:13.567Z,13.60
2017-10-27T11:32:13.478Z,13.67
2017-10-27T11:33:13.579Z,13.65
2017-10-27T11:34:13.500Z,13.72
2017-10-27T11:35:13.559Z,13.79
2017-10-27T11:36:13.513Z,13.90
2017-10-27T11:37:14.580Z,14.04
2017-10-27T11:38:13.535Z,14.18
2017-10-27T11:39:13.569Z,14.23
2017-10-27T11:40:13.581Z,14.41
2017-10-27T11:41:13.584Z,14.37
2017-10-27T11:42:13.575Z,14.45
2017-10-27T11:43:13.703Z,14.28
2017-10-27T11:44:13.599Z,14.15
2017-10-27T11:45:13.710Z,14.12
2017-10-27T11:46:13.605Z,14.03
2017-10-27T11:47:13.721Z,13.98
2017-10-27T11:48:13.784Z,13.86
2017-10-27T11:49:13.642Z,13.86
2017-10-27T11:50:13.737Z,13.94
2017-10-27T11:51:13.663Z,13.75
2017-10-27T11:52:13.751Z,13.80
2017-10-27T11:53:13.683Z,13.85
2017-10-27T11:54:13.770Z,13.94
2017-10-27T11:55:13.699Z,13.93
2017-10-27T11:56:13.786Z,14.03
2017-10-27T11:57:13.716Z,14.11
2017-10-27T11:58:13.792Z,14.11
2017-10-27T11:59:13.738Z,14.09
2017-10-27T12:00:13.809Z,14.01
2017-10-27T12:01:13.757Z,14.05
2017-10-27T12:02:13.816Z,14.12
2017-10-27T12:03:13.785Z,14.00
2017-10-27T12:04:13.839Z,13.98
2017-10-27T12:05:13.801Z,14.05
2017-10-27T12:06:13.845Z,14.03
2017-10-27T12:07:13.816Z,14.04
2017-10-27T12:08:13.856Z,14.15
2017-10-27T12:09:13.837Z,13.96
2017-10-27T12:10:13.870Z,14.01
2017-10-27T12:11:13.853Z,14.03
2017-10-27T12:12:13.887Z,14.00
2017-10-27T12:13:13.876Z,13.90
2017-10-27T12:14:14.003Z,13.97
2017-10-27T12:15:13.897Z,13.97
2017-10-27T12:16:14.015Z,13.93
2017-10-27T12:17:13.915Z,14.00
2017-10-27T12:18:14.024Z,13.98
2017-10-27T12:19:13.936Z,13.83
2017-10-27T12:20:14.104Z,13.80
2017-10-27T12:21:13.956Z,13.85
2017-10-27T12:22:14.117Z,14.01
2017-10-27T12:23:13.978Z,14.04
2017-10-27T12:24:14.133Z,14.16
2017-10-27T12:25:13.997Z,14.21
2017-10-27T12:26:14.142Z,14.18
2017-10-27T12:27:14.016Z,14.13
2017-10-27T12:28:14.158Z,14.16
2017-10-27T12:29:14.036Z,14.18
2017-10-27T12:30:14.186Z,14.33
2017-10-27T12:31:14.072Z,14.34
2017-10-27T12:32:14.195Z,14.53
2017-10-27T12:33:14.084Z,14.56
2017-10-27T12:34:14.203Z,14.59
2017-10-27T12:35:14.104Z,14.48
2017-10-27T12:36:14.233Z,14.71
2017-10-27T12:37:14.118Z,14.86
2017-10-27T12:38:14.229Z,15.01
2017-10-27T12:39:14.138Z,14.97
2017-10-27T12:40:15.189Z,15.03
2017-10-27T12:41:14.161Z,14.90
2017-10-27T12:42:14.277Z,14.99
2017-10-27T12:43:14.178Z,15.04
2017-10-27T12:44:14.296Z,14.97
2017-10-27T12:45:14.195Z,15.03
2017-10-27T12:46:14.321Z,14.86
2017-10-27T12:47:14.219Z,14.86
2017-10-27T12:48:14.318Z,14.82
2017-10-27T12:49:14.238Z,14.77
2017-10-27T12:50:14.334Z,14.71
2017-10-27T12:51:14.262Z,14.70
2017-10-27T12:52:14.353Z,14.67
2017-10-27T12:53:14.283Z,14.64
2017-10-27T12:54:14.357Z,14.61
2017-10-27T12:55:14.303Z,14.51
2017-10-27T12:56:14.370Z,14.52
2017-10-27T12:57:14.321Z,14.51
2017-10-27T12:58:14.382Z,14.66
2017-10-27T12:59:14.344Z,14.64
2017-10-27T13:00:14.396Z,14.67
2017-10-27T13:01:14.357Z,14.44
2017-10-27T13:02:14.418Z,14.51
2017-10-27T13:03:14.381Z,14.38
2017-10-27T13:04:15.445Z,14.37